Time;durP1;ratioP1;P1;durP2;ratioP2;P2;SDS_P1;SDS_P2;PMS_P1;PMS_P2;Temp;Humidity;BMP_temperature;BMP_pressure;BME280_temperature;BME280_humidity;BME280_pressure;Samples;Min_cycle;Max_cycle;Signal;HPM_P1;HPM_P2
2022/05/16 00:01:08;;;;;;;3.90;3.60;;;21.40;56.80;;;;;;5085025;28;20198;-83
2022/05/16 00:03:34;;;;;;;3.75;3.45;;;21.50;57.00;;;;;;5083894;28;20186;-83
2022/05/16 00:06:00;;;;;;;3.58;3.28;;;21.50;57.10;;;;;;5076987;28;20184;-83
2022/05/16 00:08:25;;;;;;;4.10;3.80;;;21.50;56.70;;;;;;5073881;28;20228;-83
2022/05/16 00:10:52;;;;;;;3.63;3.33;;;21.50;57.10;;;;;;5073606;28;20207;-83
2022/05/16 00:13:18;;;;;;;3.80;3.38;;;21.50;57.20;;;;;;5068476;28;20176;-83
2022/05/16 00:15:43;;;;;;;3.90;3.60;;;21.40;57.60;;;;;;5077427;28;20219;-83
2022/05/16 00:18:09;;;;;;;4.97;3.47;;;21.50;57.40;;;;;;5075092;28;20319;-83
2022/05/16 00:20:35;;;;;;;4.28;3.85;;;21.20;58.10;;;;;;5077173;28;20237;-83
2022/05/16 00:23:01;;;;;;;3.90;3.53;;;21.20;58.10;;;;;;5072692;28;20195;-83
2022/05/16 00:25:27;;;;;;;8.27;3.72;;;21.30;58.10;;;;;;5073955;28;20213;-83
2022/05/16 00:27:52;;;;;;;4.43;3.58;;;21.30;57.80;;;;;;5069564;28;20220;-84
2022/05/16 00:30:19;;;;;;;3.70;3.40;;;21.40;57.40;;;;;;5075107;28;20218;-83
2022/05/16 00:32:48;;;;;;;5.43;3.83;;;21.40;57.10;;;;;;5073995;28;20210;-83
2022/05/16 00:35:17;;;;;;;4.90;3.70;;;21.40;56.80;;;;;;5081902;28;20263;-83
2022/05/16 00:37:42;;;;;;;7.20;3.75;;;21.40;57.20;;;;;;5074439;28;20238;-83
2022/05/16 00:40:11;;;;;;;4.13;3.60;;;21.30;57.50;;;;;;5072291;28;20216;-83
2022/05/16 00:42:37;;;;;;;7.47;3.78;;;21.20;58.20;;;;;;5073933;28;20194;-83
2022/05/16 00:45:04;;;;;;;8.77;4.30;;;21.20;58.10;;;;;;5072770;28;20191;-83
2022/05/16 00:47:30;;;;;;;4.25;3.85;;;21.30;57.80;;;;;;5081600;28;20225;-83
2022/05/16 00:49:56;;;;;;;4.75;3.67;;;21.40;58.00;;;;;;5076769;28;20802;-83
2022/05/16 00:52:29;;;;;;;5.68;3.75;;;21.40;57.60;;;;;;5077306;28;20816;-83
2022/05/16 00:55:02;;;;;;;4.07;3.63;;;21.40;58.00;;;;;;5066776;28;20210;-83
2022/05/16 00:57:35;;;;;;;5.15;3.80;;;21.40;58.30;;;;;;5068396;28;20188;-83
2022/05/16 01:00:26;;;;;;;5.43;4.28;;;21.40;58.00;;;;;;5072218;28;20232;-83
2022/05/16 01:05:45;;;;;;;5.50;3.72;;;21.20;58.70;;;;;;5081297;28;20186;-83
2022/05/16 01:08:19;;;;;;;5.65;3.78;;;21.20;58.60;;;;;;5070334;28;20221;-83
2022/05/16 01:10:45;;;;;;;5.28;4.32;;;21.10;58.40;;;;;;5078810;28;20199;-83
2022/05/16 01:13:11;;;;;;;4.30;3.90;;;21.20;58.10;;;;;;5078026;28;20205;-83
2022/05/16 01:15:46;;;;;;;5.68;3.63;;;21.20;58.30;;;;;;5092665;28;20219;-83
2022/05/16 01:18:16;;;;;;;4.78;4.13;;;21.10;59.10;;;;;;5081243;28;20206;-84
2022/05/16 01:20:50;;;;;;;4.57;3.95;;;20.90;60.00;;;;;;5072775;28;20209;-83
2022/05/16 01:23:19;;;;;;;5.15;4.65;;;20.90;60.00;;;;;;5073872;28;20188;-83
2022/05/16 01:25:48;;;;;;;5.07;4.25;;;20.70;60.40;;;;;;5073337;28;20189;-83
2022/05/16 01:28:18;;;;;;;6.93;4.38;;;20.70;60.30;;;;;;5073174;28;20284;-83
2022/05/16 01:30:46;;;;;;;4.50;4.10;;;20.70;60.20;;;;;;5071210;28;20205;-83
2022/05/16 01:33:14;;;;;;;3.72;3.50;;;20.70;60.20;;;;;;5080862;28;20167;-83
2022/05/16 01:35:39;;;;;;;4.63;4.07;;;20.80;59.60;;;;;;5097184;28;20202;-84
2022/05/16 01:38:25;;;;;;;4.78;4.30;;;21.00;59.30;;;;;;5071857;28;20195;-83
2022/05/16 01:41:00;;;;;;;4.88;4.47;;;21.00;58.80;;;;;;5075270;28;20213;-83
2022/05/16 01:43:38;;;;;;;4.72;4.20;;;21.00;58.60;;;;;;5080297;28;20256;-83
2022/05/16 01:46:06;;;;;;;4.82;4.25;;;21.10;58.10;;;;;;5070695;28;20273;-83
2022/05/16 01:48:32;;;;;;;6.68;4.10;;;20.90;60.00;;;;;;5078571;28;20185;-83
2022/05/16 01:51:04;;;;;;;5.40;3.55;;;20.70;60.80;;;;;;5072954;28;20185;-83
2022/05/16 01:53:30;;;;;;;4.40;4.00;;;20.60;60.80;;;;;;5079571;28;20174;-83
2022/05/16 01:55:57;;;;;;;5.30;4.80;;;20.60;60.50;;;;;;5085954;28;20194;-83
2022/05/16 01:58:23;;;;;;;5.85;4.30;;;20.70;60.90;;;;;;5081054;28;20184;-83
2022/05/16 02:00:50;;;;;;;3.97;3.63;;;20.60;60.70;;;;;;5076620;28;20297;-83
2022/05/16 02:03:16;;;;;;;6.50;4.20;;;20.70;60.50;;;;;;5078648;28;20203;-83
2022/05/16 02:05:43;;;;;;;5.25;4.07;;;20.60;61.50;;;;;;5079109;28;20547;-83
2022/05/16 02:08:10;;;;;;;5.55;3.85;;;20.50;61.40;;;;;;5076876;28;20264;-83
2022/05/16 02:10:36;;;;;;;4.78;4.25;;;20.50;61.50;;;;;;5077473;28;20207;-82
2022/05/16 02:13:03;;;;;;;4.68;4.10;;;20.40;61.50;;;;;;5072802;28;20207;-84
2022/05/16 02:15:32;;;;;;;4.97;4.15;;;20.40;61.80;;;;;;5068509;28;20292;-83
2022/05/16 02:17:58;;;;;;;4.20;3.85;;;20.30;62.70;;;;;;5075152;28;20209;-83
2022/05/16 02:20:26;;;;;;;7.03;4.07;;;20.20;62.80;;;;;;5086369;28;20222;-83
2022/05/16 02:25:39;;;;;;;5.05;4.20;;;20.30;62.10;;;;;;5073624;28;20286;-83
2022/05/16 02:28:09;;;;;;;4.72;4.32;;;20.30;61.70;;;;;;5076803;28;20198;-83
2022/05/16 02:30:35;;;;;;;4.40;3.97;;;20.30;61.70;;;;;;5073216;28;20252;-83
2022/05/16 02:33:02;;;;;;;4.70;4.22;;;20.40;61.70;;;;;;5073846;28;20183;-83
2022/05/16 02:35:28;;;;;;;5.03;4.50;;;20.30;61.50;;;;;;5070344;28;20200;-83
2022/05/16 02:37:58;;;;;;;4.65;4.20;;;20.40;61.80;;;;;;5079654;28;20189;-83
2022/05/16 02:40:25;;;;;;;7.05;4.75;;;20.50;61.70;;;;;;5076328;28;20210;-83
2022/05/16 02:42:52;;;;;;;4.55;4.20;;;20.40;61.80;;;;;;5076634;28;20193;-83
2022/05/16 02:45:18;;;;;;;5.20;4.22;;;20.50;61.70;;;;;;5077915;28;20217;-83
2022/05/16 02:47:44;;;;;;;4.30;4.00;;;20.50;61.40;;;;;;5077631;28;20220;-83
2022/05/16 02:50:10;;;;;;;4.60;4.10;;;20.60;61.40;;;;;;5075056;28;20276;-83
2022/05/16 02:52:36;;;;;;;4.75;4.32;;;20.50;61.40;;;;;;5080840;28;20222;-83
2022/05/16 02:55:03;;;;;;;4.32;3.92;;;20.50;61.30;;;;;;5077376;28;20191;-83
2022/05/16 02:57:29;;;;;;;4.88;4.47;;;20.50;61.30;;;;;;5080065;28;20237;-83
2022/05/16 02:59:56;;;;;;;5.72;4.00;;;20.50;61.20;;;;;;5080138;28;20212;-83
2022/05/16 03:02:22;;;;;;;5.00;4.28;;;20.60;61.20;;;;;;5081658;28;20182;-83
2022/05/16 03:04:48;;;;;;;4.50;4.20;;;20.60;61.60;;;;;;5077896;28;20212;-82
2022/05/16 03:07:14;;;;;;;4.72;4.43;;;20.50;62.10;;;;;;5082013;28;20294;-83
2022/05/16 03:09:40;;;;;;;4.70;4.40;;;20.50;62.30;;;;;;5083609;28;20305;-83
2022/05/16 03:12:06;;;;;;;5.38;4.30;;;20.60;62.30;;;;;;5072812;28;20240;-83
2022/05/16 03:14:35;;;;;;;5.53;4.45;;;20.50;62.70;;;;;;5078964;28;20178;-83
2022/05/16 03:17:02;;;;;;;4.78;4.38;;;20.40;62.60;;;;;;5074878;28;20204;-85
2022/05/16 03:19:28;;;;;;;5.50;4.25;;;20.30;62.90;;;;;;5084676;28;20205;-83
2022/05/16 03:21:54;;;;;;;4.97;4.57;;;20.30;63.10;;;;;;5081077;28;20665;-83
2022/05/16 03:24:20;;;;;;;4.63;4.10;;;20.40;63.60;;;;;;5078613;28;20201;-83
2022/05/16 03:26:45;;;;;;;5.03;4.55;;;20.20;64.50;;;;;;5073205;28;20232;-83
2022/05/16 03:29:13;;;;;;;4.60;4.05;;;20.10;64.80;;;;;;5075214;28;20202;-83
2022/05/16 03:31:40;;;;;;;4.72;4.32;;;20.00;65.60;;;;;;5081060;28;20173;-83
2022/05/16 03:34:07;;;;;;;5.35;4.35;;;20.00;65.30;;;;;;5076027;28;20228;-83
2022/05/16 03:36:33;;;;;;;5.43;4.35;;;19.90;66.00;;;;;;5074502;28;20272;-83
2022/05/16 03:41:43;;;;;;;4.70;4.03;;;19.50;68.20;;;;;;5075186;28;20185;-83
2022/05/16 03:44:09;;;;;;;7.53;4.57;;;19.30;69.30;;;;;;5077477;28;20179;-83
2022/05/16 03:46:35;;;;;;;5.88;4.15;;;19.30;69.70;;;;;;5077156;28;20216;-84
2022/05/16 03:49:01;;;;;;;5.63;4.00;;;19.30;70.00;;;;;;5076770;28;20665;-83
2022/05/16 03:51:27;;;;;;;7.30;4.63;;;19.20;69.90;;;;;;5083542;28;20183;-83
2022/05/16 03:53:53;;;;;;;5.43;4.82;;;19.10;70.40;;;;;;5086372;28;20207;-82
2022/05/16 03:56:21;;;;;;;5.53;4.57;;;19.20;69.60;;;;;;5077709;28;20188;-83
2022/05/16 03:58:47;;;;;;;4.97;4.57;;;19.40;68.70;;;;;;5084247;28;20187;-83
2022/05/16 04:01:14;;;;;;;7.95;4.30;;;19.60;68.10;;;;;;5063176;28;20717;-83
2022/05/16 04:03:40;;;;;;;5.68;4.47;;;19.60;67.70;;;;;;5063958;28;20223;-83
2022/05/16 04:06:05;;;;;;;4.68;4.13;;;19.70;67.20;;;;;;5078462;28;20245;-83
2022/05/16 04:08:32;;;;;;;8.50;4.45;;;19.80;67.20;;;;;;5075835;28;20188;-83
2022/05/16 04:10:59;;;;;;;4.60;4.20;;;19.70;67.90;;;;;;5071249;28;20180;-83
2022/05/16 04:13:26;;;;;;;5.50;4.75;;;19.70;67.90;;;;;;5078967;28;20245;-83
2022/05/16 04:15:52;;;;;;;5.18;4.53;;;19.60;68.50;;;;;;5085662;28;20705;-83
2022/05/16 04:18:18;;;;;;;4.88;4.47;;;19.40;69.60;;;;;;5073423;28;20752;-83
2022/05/16 04:20:43;;;;;;;12.52;5.20;;;19.50;69.50;;;;;;5077014;28;20228;-83
2022/05/16 04:23:09;;;;;;;12.52;5.13;;;19.40;71.30;;;;;;5071459;28;20249;-83
2022/05/16 04:25:37;;;;;;;9.73;4.75;;;19.40;72.00;;;;;;5073811;28;20233;-83
2022/05/16 04:28:05;;;;;;;8.40;4.82;;;19.50;71.10;;;;;;5063828;28;20223;-83
2022/05/16 04:30:30;;;;;;;6.88;4.70;;;19.60;72.10;;;;;;5073867;28;20235;-83
2022/05/16 04:32:56;;;;;;;10.82;5.07;;;19.60;72.60;;;;;;5073802;28;20192;-83
2022/05/16 04:35:22;;;;;;;6.03;5.05;;;19.40;73.40;;;;;;5065397;28;20190;-83
2022/05/16 04:37:47;;;;;;;5.63;4.95;;;19.30;73.70;;;;;;5074688;28;20299;-82
2022/05/16 04:40:14;;;;;;;6.13;4.57;;;19.30;73.90;;;;;;5077910;28;20212;-83
2022/05/16 04:42:40;;;;;;;5.78;5.10;;;19.30;73.40;;;;;;5078612;28;20650;-82
2022/05/16 04:45:08;;;;;;;5.72;5.13;;;19.30;73.40;;;;;;5078649;28;20202;-82
2022/05/16 04:47:33;;;;;;;5.80;4.95;;;19.20;74.00;;;;;;5076608;28;20223;-82
2022/05/16 04:49:59;;;;;;;5.45;4.93;;;19.00;74.60;;;;;;5071793;28;20710;-83
2022/05/16 04:52:24;;;;;;;5.50;4.85;;;18.80;76.30;;;;;;5078177;28;20190;-84
2022/05/16 04:54:51;;;;;;;6.00;4.95;;;18.80;75.80;;;;;;5073870;28;20195;-82
2022/05/16 04:57:18;;;;;;;5.95;4.55;;;18.90;77.10;;;;;;5079050;28;20172;-83
2022/05/16 04:59:47;;;;;;;6.90;4.70;;;19.00;75.30;;;;;;5077860;28;20196;-83
2022/05/16 05:02:13;;;;;;;6.40;4.85;;;19.10;75.50;;;;;;5078290;28;20775;-82
2022/05/16 05:04:39;;;;;;;8.02;4.82;;;19.10;75.20;;;;;;5077931;28;20808;-83
2022/05/16 05:07:04;;;;;;;6.55;4.68;;;19.30;74.60;;;;;;5078918;28;20235;-83
2022/05/16 05:09:30;;;;;;;5.07;4.60;;;19.40;74.40;;;;;;5078846;28;20195;-83
2022/05/16 05:14:42;;;;;;;5.70;4.65;;;19.40;73.80;;;;;;5078728;28;20237;-83
2022/05/16 05:17:11;;;;;;;6.78;4.72;;;19.60;74.50;;;;;;5074288;28;20199;-82
2022/05/16 05:19:41;;;;;;;5.97;4.57;;;19.50;74.70;;;;;;5077581;28;20203;-82
2022/05/16 05:22:07;;;;;;;6.10;4.82;;;19.50;74.10;;;;;;5078237;28;20179;-82
2022/05/16 05:24:33;;;;;;;4.05;3.75;;;19.60;74.40;;;;;;5075951;28;20190;-82
2022/05/16 05:26:59;;;;;;;8.18;4.68;;;19.70;72.90;;;;;;5076399;28;20760;-82
2022/05/16 05:29:25;;;;;;;4.78;4.38;;;19.90;73.20;;;;;;5056888;28;20215;-83
2022/05/16 05:31:51;;;;;;;7.28;5.20;;;20.00;72.70;;;;;;5077418;28;20446;-83
2022/05/16 05:34:17;;;;;;;5.90;5.10;;;20.20;72.60;;;;;;5077918;28;20191;-83
2022/05/16 05:36:43;;;;;;;9.95;7.10;;;20.20;72.80;;;;;;5069211;28;20189;-82
2022/05/16 05:39:16;;;;;;;6.70;6.07;;;20.20;71.30;;;;;;5070739;28;20335;-83
2022/05/16 05:41:42;;;;;;;6.05;5.32;;;20.20;70.80;;;;;;5077983;28;20182;-83
2022/05/16 05:44:07;;;;;;;6.95;5.20;;;20.30;71.60;;;;;;5076481;28;20201;-83
2022/05/16 05:46:35;;;;;;;8.95;5.70;;;20.40;71.40;;;;;;5073898;28;20202;-83
2022/05/16 05:49:02;;;;;;;5.85;5.32;;;20.40;72.30;;;;;;5085016;28;20211;-83
2022/05/16 05:51:28;;;;;;;6.70;5.15;;;20.50;72.70;;;;;;5092391;28;20276;-83
2022/05/16 05:53:53;;;;;;;5.97;5.38;;;20.40;72.30;;;;;;5083609;28;20308;-83
2022/05/16 05:56:19;;;;;;;9.00;5.50;;;20.40;72.20;;;;;;5080804;28;20208;-83
2022/05/16 05:58:46;;;;;;;9.27;5.32;;;20.50;72.50;;;;;;5074604;28;20248;-83
2022/05/16 06:01:12;;;;;;;5.65;5.15;;;20.60;73.80;;;;;;5073843;28;20182;-83
2022/05/16 06:03:37;;;;;;;7.00;5.00;;;20.50;74.80;;;;;;5074987;28;20233;-82
2022/05/16 06:06:04;;;;;;;11.93;5.65;;;20.50;75.70;;;;;;5074901;28;20672;-82
2022/05/16 06:08:29;;;;;;;6.95;5.35;;;20.50;76.30;;;;;;5078204;28;20210;-82
2022/05/16 06:10:55;;;;;;;5.63;5.05;;;20.50;75.70;;;;;;5080142;28;20195;-83
2022/05/16 06:13:21;;;;;;;8.63;5.10;;;20.50;76.90;;;;;;5077536;28;20192;-83
2022/05/16 06:15:47;;;;;;;17.88;7.03;;;20.50;76.80;;;;;;5081817;28;20209;-83
2022/05/16 06:18:12;;;;;;;5.13;4.72;;;20.60;75.70;;;;;;5080123;28;20250;-83
2022/05/16 06:20:38;;;;;;;5.90;4.63;;;20.70;73.60;;;;;;5078878;28;20670;-83
2022/05/16 06:23:04;;;;;;;14.38;6.22;;;20.80;73.40;;;;;;5072882;28;20659;-83
2022/05/16 06:25:39;;;;;;;9.38;7.05;;;20.90;74.40;;;;;;5080953;28;20239;-84
2022/05/16 06:28:17;;;;;;;8.10;6.97;;;20.70;75.70;;;;;;5088901;28;20302;-83
2022/05/16 06:30:45;;;;;;;7.15;6.38;;;20.50;73.90;;;;;;5075663;28;20203;-83
2022/05/16 06:33:11;;;;;;;7.85;6.78;;;20.60;73.70;;;;;;5071038;28;20184;-83
2022/05/16 06:35:38;;;;;;;12.30;7.05;;;20.80;72.20;;;;;;5074281;28;20177;-83
2022/05/16 06:38:09;;;;;;;9.27;6.57;;;20.90;72.40;;;;;;5081461;28;20190;-83
2022/05/16 06:40:36;;;;;;;7.43;6.72;;;20.90;72.00;;;;;;5080666;28;20241;-83
2022/05/16 06:43:02;;;;;;;8.38;6.53;;;21.10;71.20;;;;;;5082037;28;20278;-83
2022/05/16 06:45:28;;;;;;;8.63;6.40;;;21.20;70.70;;;;;;5073908;28;20183;-84
2022/05/16 06:47:53;;;;;;;7.53;6.82;;;21.20;70.80;;;;;;5081002;28;20211;-84
2022/05/16 06:50:19;;;;;;;7.25;6.60;;;21.20;71.90;;;;;;5080266;28;20209;-84
2022/05/16 06:52:45;;;;;;;6.80;6.30;;;21.30;71.60;;;;;;5079649;28;20196;-83
2022/05/16 06:55:10;;;;;;;6.97;6.25;;;21.20;73.00;;;;;;5079442;28;20202;-83
2022/05/16 06:57:37;;;;;;;7.18;6.05;;;21.10;69.10;;;;;;5081719;28;20570;-83
2022/05/16 07:00:06;;;;;;;7.00;6.30;;;21.10;71.00;;;;;;5078880;28;20742;-83
2022/05/16 07:02:32;;;;;;;8.57;6.35;;;21.10;70.70;;;;;;5082172;28;20296;-82
2022/05/16 07:04:58;;;;;;;7.68;6.47;;;21.10;69.90;;;;;;5082539;28;20191;-82
2022/05/16 07:07:25;;;;;;;6.82;6.13;;;20.90;71.80;;;;;;5081059;28;20587;-83
2022/05/16 07:09:51;;;;;;;10.02;6.07;;;21.00;71.00;;;;;;5082224;28;20205;-83
2022/05/16 07:12:17;;;;;;;9.30;6.35;;;20.90;71.60;;;;;;5074033;28;20189;-83
2022/05/16 07:14:45;;;;;;;10.25;6.32;;;21.00;72.20;;;;;;5080886;28;20315;-83
2022/05/16 07:17:11;;;;;;;6.97;6.25;;;21.00;72.30;;;;;;5081894;28;20551;-82
2022/05/16 07:19:37;;;;;;;7.97;6.80;;;21.30;71.60;;;;;;5079255;28;20282;-83
2022/05/16 07:22:09;;;;;;;9.15;7.25;;;21.40;71.30;;;;;;5076125;28;20276;-83
2022/05/16 07:24:34;;;;;;;9.18;6.80;;;21.40;71.50;;;;;;5082423;28;20176;-83
2022/05/16 07:29:44;;;;;;;7.10;6.40;;;21.60;70.00;;;;;;5081306;28;20622;-83
2022/05/16 07:32:12;;;;;;;9.43;5.97;;;21.50;69.40;;;;;;5077609;28;20185;-83
2022/05/16 07:34:39;;;;;;;8.05;6.65;;;21.60;71.10;;;;;;5071774;28;20185;-83
2022/05/16 07:37:05;;;;;;;6.75;6.10;;;21.60;70.30;;;;;;5079308;28;20187;-83
2022/05/16 07:39:31;;;;;;;6.53;5.72;;;21.70;71.40;;;;;;5082532;28;20251;-83
2022/05/16 07:41:58;;;;;;;7.15;6.22;;;21.90;70.20;;;;;;5083431;28;20187;-83
2022/05/16 07:44:24;;;;;;;11.10;6.72;;;21.80;71.80;;;;;;5085082;28;20246;-83
2022/05/16 07:46:49;;;;;;;7.15;6.43;;;21.70;71.40;;;;;;5084092;28;20267;-83
2022/05/16 07:49:16;;;;;;;8.50;5.70;;;21.70;72.20;;;;;;5081584;28;20203;-83
2022/05/16 07:51:42;;;;;;;9.48;6.18;;;21.50;71.70;;;;;;5072914;28;20184;-83
2022/05/16 07:54:08;;;;;;;9.13;6.80;;;21.60;71.70;;;;;;5059964;28;20520;-83
2022/05/16 07:56:34;;;;;;;7.00;6.05;;;21.50;72.60;;;;;;5076374;28;20188;-83
2022/05/16 07:59:02;;;;;;;6.75;6.07;;;21.40;72.40;;;;;;5067666;28;20244;-83
2022/05/16 08:01:28;;;;;;;7.85;5.75;;;21.50;72.80;;;;;;5079796;28;20184;-82
2022/05/16 08:03:54;;;;;;;6.45;5.85;;;21.50;73.30;;;;;;5080157;28;20548;-83
2022/05/16 08:06:20;;;;;;;8.85;5.63;;;21.50;74.60;;;;;;5078011;28;20288;-83
2022/05/16 08:11:29;;;;;;;7.57;5.97;;;21.70;73.00;;;;;;5079887;28;20201;-83
2022/05/16 08:13:55;;;;;;;6.95;6.35;;;21.70;73.80;;;;;;5074703;28;20182;-82
2022/05/16 08:16:21;;;;;;;6.78;6.07;;;21.80;72.50;;;;;;5081012;28;20204;-83
2022/05/16 08:18:46;;;;;;;6.70;5.70;;;21.70;72.40;;;;;;5081388;28;20185;-83
2022/05/16 08:21:12;;;;;;;6.45;5.82;;;21.90;72.90;;;;;;5082458;28;20189;-83
2022/05/16 08:23:39;;;;;;;6.72;6.07;;;22.20;73.00;;;;;;5085004;28;20187;-82
2022/05/16 08:26:05;;;;;;;6.63;5.78;;;22.50;70.40;;;;;;5076872;28;20207;-82
2022/05/16 08:28:34;;;;;;;6.30;5.75;;;22.50;69.30;;;;;;5083315;28;20227;-82
2022/05/16 08:31:00;;;;;;;8.02;6.05;;;22.60;67.90;;;;;;5088297;28;20185;-82
2022/05/16 08:33:26;;;;;;;9.13;6.30;;;22.80;67.50;;;;;;5084859;28;20186;-82
2022/05/16 08:41:29;;;;;;;7.80;5.82;;;23.50;67.20;;;;;;5081404;28;20644;-82
2022/05/16 08:44:22;;;;;;;9.85;6.53;;;23.60;63.10;;;;;;5083145;28;20723;-82
2022/05/16 08:47:11;;;;;;;8.85;6.10;;;23.80;62.70;;;;;;5070344;28;20215;-82
2022/05/16 08:49:49;;;;;;;11.77;6.15;;;24.10;62.20;;;;;;5082164;28;20187;-82
2022/05/16 08:52:30;;;;;;;8.88;5.72;;;24.30;62.30;;;;;;5079700;28;20186;-82
2022/05/16 08:55:05;;;;;;;12.00;6.28;;;24.50;60.20;;;;;;5080442;28;20183;-82
2022/05/16 08:57:40;;;;;;;7.57;5.75;;;24.60;62.20;;;;;;5071082;28;20266;-82
2022/05/16 09:00:11;;;;;;;5.88;5.38;;;24.70;58.80;;;;;;5077640;28;20795;-84
2022/05/16 09:02:41;;;;;;;10.00;6.72;;;24.70;59.00;;;;;;5080727;28;20226;-84
2022/05/16 09:05:17;;;;;;;8.18;5.80;;;24.60;57.30;;;;;;5078619;28;20681;-84
2022/05/16 09:07:56;;;;;;;11.40;6.50;;;24.80;57.70;;;;;;5088724;28;20210;-85
2022/05/16 09:10:23;;;;;;;8.30;5.80;;;24.90;55.70;;;;;;5073826;28;20232;-84
2022/05/16 09:13:13;;;;;;;8.13;6.28;;;25.00;55.80;;;;;;5073635;28;20180;-84
2022/05/16 09:16:05;;;;;;;6.50;5.88;;;25.20;55.60;;;;;;5079039;28;20194;-84
2022/05/16 09:18:45;;;;;;;8.05;6.30;;;25.10;56.20;;;;;;5078632;28;20236;-82
2022/05/16 09:21:38;;;;;;;8.98;6.22;;;25.10;57.00;;;;;;5083604;28;20187;-85
2022/05/16 09:24:10;;;;;;;9.32;6.55;;;25.10;58.70;;;;;;5075354;28;20212;-82
2022/05/16 09:26:55;;;;;;;9.48;5.65;;;25.10;58.10;;;;;;5075537;28;20303;-83
2022/05/16 09:29:28;;;;;;;10.50;5.78;;;25.00;56.20;;;;;;5074671;28;20203;-83
2022/05/16 09:32:04;;;;;;;10.85;4.80;;;25.10;56.20;;;;;;5081244;28;20222;-83
2022/05/16 09:34:31;;;;;;;7.93;5.03;;;25.00;53.30;;;;;;5082043;28;20186;-83
2022/05/16 09:36:57;;;;;;;8.23;4.18;;;25.00;55.40;;;;;;5087745;28;20669;-83
2022/05/16 09:39:31;;;;;;;9.38;4.60;;;25.10;53.10;;;;;;5075646;28;20208;-82
2022/05/16 09:42:23;;;;;;;6.18;3.72;;;25.00;52.80;;;;;;5080944;28;20198;-83
2022/05/16 09:45:03;;;;;;;6.80;3.65;;;25.00;51.80;;;;;;5078702;28;20191;-83
2022/05/16 09:47:29;;;;;;;6.50;3.38;;;24.90;51.50;;;;;;5075911;28;20419;-82
2022/05/16 09:50:20;;;;;;;11.32;4.15;;;24.70;51.80;;;;;;5080250;28;20279;-82
2022/05/16 09:53:13;;;;;;;10.32;3.78;;;24.70;52.90;;;;;;5078932;28;20223;-83
2022/05/16 09:55:55;;;;;;;21.63;5.30;;;24.50;52.40;;;;;;5075771;28;20180;-84
2022/05/16 09:58:31;;;;;;;9.95;3.85;;;24.20;53.40;;;;;;5081734;28;20183;-83
2022/05/16 10:01:04;;;;;;;7.57;3.63;;;24.20;53.40;;;;;;5077607;28;20210;-82
2022/05/16 10:03:36;;;;;;;13.73;4.55;;;24.20;53.30;;;;;;5073726;28;20202;-82
2022/05/16 10:06:10;;;;;;;9.02;4.05;;;24.00;54.50;;;;;;5074541;28;20189;-84
2022/05/16 10:08:39;;;;;;;9.57;3.90;;;23.80;53.60;;;;;;5072174;28;20182;-82
2022/05/16 10:11:12;;;;;;;19.60;4.60;;;23.70;53.80;;;;;;5069362;28;20355;-83
2022/05/16 10:13:39;;;;;;;37.80;5.57;;;23.60;54.80;;;;;;5075597;28;20178;-83
2022/05/16 10:16:08;;;;;;;4.32;3.60;;;23.50;54.00;;;;;;5070714;28;20221;-82
2022/05/16 10:18:41;;;;;;;8.48;4.03;;;23.50;54.90;;;;;;5072573;28;20194;-82
2022/05/16 10:21:15;;;;;;;17.52;3.97;;;23.40;55.60;;;;;;5071314;28;20189;-83
2022/05/16 10:23:44;;;;;;;8.90;3.25;;;23.00;56.00;;;;;;5071025;28;20177;-83
2022/05/16 10:26:14;;;;;;;11.70;3.20;;;22.80;56.50;;;;;;5074667;28;20179;-83
2022/05/16 10:28:46;;;;;;;8.10;3.20;;;22.70;57.10;;;;;;5077436;28;20184;-81
2022/05/16 10:34:28;;;;;;;11.73;3.63;;;22.50;57.20;;;;;;5088657;28;20195;-82
2022/05/16 10:36:55;;;;;;;8.35;3.28;;;22.30;57.20;;;;;;5075509;28;20275;-83
2022/05/16 10:39:25;;;;;;;5.32;3.35;;;22.20;57.70;;;;;;5074902;28;20209;-84
2022/05/16 10:42:05;;;;;;;7.88;3.05;;;22.00;59.40;;;;;;5072996;28;20181;-83
2022/05/16 10:44:49;;;;;;;6.28;3.00;;;21.80;60.50;;;;;;5075949;28;20201;-83
2022/05/16 10:47:29;;;;;;;8.65;3.17;;;21.80;61.90;;;;;;5086544;28;20211;-84
2022/05/16 10:50:04;;;;;;;6.05;3.33;;;21.50;64.60;;;;;;5074671;28;20208;-83
2022/05/16 10:52:35;;;;;;;4.65;3.10;;;21.20;67.90;;;;;;5070935;28;20199;-83
2022/05/16 10:55:01;;;;;;;3.50;2.80;;;21.00;70.10;;;;;;5075854;28;20659;-82
2022/05/16 10:57:56;;;;;;;9.02;3.40;;;20.80;72.90;;;;;;5073657;28;20225;-83
2022/05/16 11:00:39;;;;;;;6.05;3.67;;;20.70;75.10;;;;;;5072550;28;20238;-83
2022/05/16 11:03:29;;;;;;;3.60;3.30;;;20.70;77.50;;;;;;5078779;28;20244;-83
2022/05/16 11:06:04;;;;;;;6.43;3.42;;;20.40;82.00;;;;;;5075795;28;20194;-83
2022/05/16 11:08:57;;;;;;;4.10;3.00;;;20.20;85.20;;;;;;5075628;28;20205;-83
2022/05/16 11:11:51;;;;;;;4.97;3.35;;;20.10;86.90;;;;;;5077047;28;20183;-83
2022/05/16 11:14:48;;;;;;;7.07;3.65;;;20.00;89.30;;;;;;5073430;28;20176;-84
2022/05/16 11:17:39;;;;;;;3.65;3.35;;;20.10;91.10;;;;;;5071444;28;20977;-84
2022/05/16 11:20:15;;;;;;;8.38;4.15;;;20.10;90.60;;;;;;5071158;28;20745;-84
2022/05/16 11:22:47;;;;;;;5.88;3.55;;;20.20;91.70;;;;;;5075072;28;20221;-84
2022/05/16 11:25:25;;;;;;;5.43;3.30;;;20.30;91.20;;;;;;5069559;28;20286;-84
2022/05/16 11:27:57;;;;;;;7.57;3.72;;;20.30;93.20;;;;;;5077013;28;20583;-83
2022/05/16 11:30:25;;;;;;;4.20;3.70;;;20.30;93.50;;;;;;5081444;28;20206;-84
2022/05/16 11:33:08;;;;;;;6.90;3.83;;;20.30;94.50;;;;;;5074772;28;20187;-83
2022/05/16 11:35:49;;;;;;;5.05;4.10;;;20.40;91.80;;;;;;5086477;28;20176;-84
2022/05/16 11:38:43;;;;;;;7.40;4.25;;;20.40;93.90;;;;;;5076563;28;20188;-83
2022/05/16 11:41:20;;;;;;;4.50;3.80;;;20.40;94.20;;;;;;5074101;28;20199;-83
2022/05/16 11:43:49;;;;;;;4.88;3.65;;;20.50;95.30;;;;;;5073587;28;20202;-83
2022/05/16 11:46:37;;;;;;;5.35;4.00;;;20.30;94.80;;;;;;5071265;28;20199;-83
2022/05/16 11:49:16;;;;;;;5.85;4.03;;;20.20;96.90;;;;;;5074243;28;20214;-83
2022/05/16 11:52:06;;;;;;;6.55;4.05;;;20.10;95.70;;;;;;5077774;28;20196;-83
2022/05/16 11:54:37;;;;;;;5.50;3.88;;;20.10;97.30;;;;;;5077064;28;20204;-83
2022/05/16 12:03:06;;;;;;;4.30;3.47;;;20.50;92.90;;;;;;5072044;28;20318;-83
2022/05/16 12:05:42;;;;;;;5.53;3.58;;;20.70;88.70;;;;;;5070245;28;20691;-83
2022/05/16 12:08:31;;;;;;;7.63;3.08;;;21.10;86.90;;;;;;5075442;28;20197;-83
2022/05/16 12:11:21;;;;;;;5.70;3.20;;;21.40;85.00;;;;;;5088162;28;20761;-83
2022/05/16 12:14:12;;;;;;;4.18;3.17;;;21.80;84.10;;;;;;5063103;28;20230;-84
2022/05/16 12:16:58;;;;;;;6.15;2.88;;;22.20;80.70;;;;;;5071516;28;20199;-82
2022/05/16 12:19:31;;;;;;;3.15;2.88;;;22.50;78.10;;;;;;5076202;28;20223;-82
2022/05/16 12:22:13;;;;;;;3.45;2.83;;;22.80;75.80;;;;;;5070117;28;20191;-83
2022/05/16 12:24:40;;;;;;;5.07;3.13;;;22.80;76.20;;;;;;5072494;28;20670;-83
2022/05/16 12:27:07;;;;;;;5.28;3.15;;;22.50;75.20;;;;;;5072910;28;20214;-83
2022/05/16 12:29:53;;;;;;;6.25;3.00;;;22.80;77.00;;;;;;5080184;28;20211;-83
2022/05/16 12:32:30;;;;;;;4.53;3.30;;;23.40;71.80;;;;;;5078936;28;20200;-82
2022/05/16 12:35:28;;;;;;;3.30;2.92;;;23.80;67.80;;;;;;5080441;28;20193;-83
2022/05/16 12:37:55;;;;;;;4.50;3.05;;;24.10;68.60;;;;;;5034741;28;20319;-83
2022/05/16 12:40:39;;;;;;;5.75;3.08;;;24.10;68.20;;;;;;5079411;28;20257;-83
2022/05/16 12:43:24;;;;;;;4.45;2.88;;;24.30;64.60;;;;;;5075845;28;20274;-83
2022/05/16 12:46:11;;;;;;;3.58;2.88;;;23.90;68.30;;;;;;5075080;28;20175;-83
2022/05/16 12:48:58;;;;;;;4.22;2.80;;;23.60;69.60;;;;;;5070486;28;20199;-83
2022/05/16 12:51:45;;;;;;;5.18;3.13;;;23.80;69.80;;;;;;5072137;28;20191;-83
2022/05/16 12:54:35;;;;;;;3.60;2.80;;;24.60;66.60;;;;;;5077835;28;20209;-83
2022/05/16 12:57:20;;;;;;;5.63;3.13;;;24.70;66.60;;;;;;5075892;28;20196;-83
2022/05/16 13:00:08;;;;;;;4.40;3.05;;;25.10;64.70;;;;;;5075088;28;20254;-84
2022/05/16 13:03:14;;;;;;;4.07;3.17;;;25.30;62.80;;;;;;5070144;28;20184;-83
2022/05/16 13:06:00;;;;;;;4.90;3.15;;;25.00;61.60;;;;;;5060089;28;20463;-83
2022/05/16 13:08:46;;;;;;;4.60;3.40;;;25.60;58.90;;;;;;5074809;28;20611;-83
2022/05/16 13:11:25;;;;;;;4.70;3.22;;;25.60;59.40;;;;;;5068981;28;20211;-83
2022/05/16 13:14:07;;;;;;;3.53;3.22;;;25.80;59.80;;;;;;5071728;28;20182;-83
2022/05/16 13:16:37;;;;;;;3.83;3.20;;;26.10;58.00;;;;;;5065113;28;20203;-83
2022/05/16 13:19:16;;;;;;;3.58;3.15;;;26.50;56.40;;;;;;5072432;28;20225;-83
2022/05/16 13:22:01;;;;;;;5.53;2.97;;;26.50;56.30;;;;;;5070917;28;20171;-83
2022/05/16 13:24:27;;;;;;;5.63;3.80;;;25.70;57.60;;;;;;5073320;28;20179;-83
2022/05/16 13:29:42;;;;;;;5.85;2.95;;;26.20;57.40;;;;;;5079193;28;20234;-82
2022/05/16 13:32:12;;;;;;;5.15;3.60;;;26.60;55.40;;;;;;5074269;28;20658;-83
2022/05/16 13:35:13;;;;;;;4.28;3.00;;;26.60;55.70;;;;;;5074586;28;20176;-82
2022/05/16 13:37:45;;;;;;;5.90;3.45;;;26.80;55.60;;;;;;5069741;28;20203;-83
2022/05/16 13:40:30;;;;;;;3.65;3.35;;;27.40;52.60;;;;;;5072288;28;20233;-83